Weather & Traffic



KLGB 250253Z 30010KT 10SM BKN028 17/11 A3003 RMK AO2 SLP168 T01670111 51008


TAF AMD KLGB 250305Z 2503/2524 30010KT P6SM BKN028 FM250500 30005KT P6SM BKN025 FM250900 VRB03KT P6SM OVC025 FM251800 22010KT P6SM OVC035 FM252100 28012KT P6SM SCT040